Newton, Utah
Current Conditions -  °F | °C
As of 1:51 AM on Monday 20 Oct 2014 (Local Time) from KLGU Reporting Station
Clear Clear  
Wind Chill: 39°   Ceiling: Unl
Heat Index: 39°   Visibility: 10mi
Dew Point: 33°   Wind: 0mph
Humidity: 79%   Direction: NA
Pressure: 30.06"   Gusts: NA
Location:  41.86°N, 111.99°W
Report Text: KLGU 200751Z AUTO 00000KT 10SM CLR 04/01 A3006 RMK AO2 SLP158 T00390006 TSNO
Loading
Personal Weather Stations






























Interactive Weather Map
Tropical Storm Tracking
New forecast layout! Learn more

10-Day Weather Forecast

Advertisements
Track Severe Weather on mobile